sensor_id;sensor_type;location;lat;lon;timestamp;temperature;humidity
418;DHT22;49;48.530;9.200;2022-09-01T00:01:27;21.30;54.80
418;DHT22;49;48.530;9.200;2022-09-01T00:03:56;21.40;61.40
418;DHT22;49;48.530;9.200;2022-09-01T00:06:24;21.50;60.00
418;DHT22;49;48.530;9.200;2022-09-01T00:08:53;21.50;58.90
418;DHT22;49;48.530;9.200;2022-09-01T00:11:21;21.60;58.10
418;DHT22;49;48.530;9.200;2022-09-01T00:13:49;21.60;55.50
418;DHT22;49;48.530;9.200;2022-09-01T00:16:17;21.80;59.80
418;DHT22;49;48.530;9.200;2022-09-01T00:18:49;21.80;56.80
418;DHT22;49;48.530;9.200;2022-09-01T00:21:17;22.00;56.10
418;DHT22;49;48.530;9.200;2022-09-01T00:23:44;21.90;58.10
418;DHT22;49;48.530;9.200;2022-09-01T00:26:12;22.10;56.30
418;DHT22;49;48.530;9.200;2022-09-01T00:28:39;22.30;56.70
418;DHT22;49;48.530;9.200;2022-09-01T00:31:07;22.40;55.70
418;DHT22;49;48.530;9.200;2022-09-01T00:33:36;22.30;54.10
418;DHT22;49;48.530;9.200;2022-09-01T00:36:05;21.90;52.10
418;DHT22;49;48.530;9.200;2022-09-01T00:38:33;21.70;54.10
418;DHT22;49;48.530;9.200;2022-09-01T00:41:00;21.80;56.80
418;DHT22;49;48.530;9.200;2022-09-01T00:43:37;21.90;56.60
418;DHT22;49;48.530;9.200;2022-09-01T00:46:07;22.00;54.70
418;DHT22;49;48.530;9.200;2022-09-01T00:48:35;21.80;55.50
418;DHT22;49;48.530;9.200;2022-09-01T00:51:03;22.00;56.70
418;DHT22;49;48.530;9.200;2022-09-01T00:53:32;22.20;55.70
418;DHT22;49;48.530;9.200;2022-09-01T00:56:00;22.30;55.20
418;DHT22;49;48.530;9.200;2022-09-01T00:58:27;22.10;52.60
418;DHT22;49;48.530;9.200;2022-09-01T01:00:55;22.20;53.80
418;DHT22;49;48.530;9.200;2022-09-01T01:03:22;22.20;54.00
418;DHT22;49;48.530;9.200;2022-09-01T01:05:53;22.20;52.90
418;DHT22;49;48.530;9.200;2022-09-01T01:08:26;22.30;53.00
418;DHT22;49;48.530;9.200;2022-09-01T01:11:01;22.00;52.10
418;DHT22;49;48.530;9.200;2022-09-01T01:13:28;21.80;52.00
418;DHT22;49;48.530;9.200;2022-09-01T01:15:56;21.70;50.60
418;DHT22;49;48.530;9.200;2022-09-01T01:18:24;21.90;50.90
418;DHT22;49;48.530;9.200;2022-09-01T01:20:58;21.80;53.70
418;DHT22;49;48.530;9.200;2022-09-01T01:23:48;22.00;55.40
418;DHT22;49;48.530;9.200;2022-09-01T01:26:22;22.20;54.70
418;DHT22;49;48.530;9.200;2022-09-01T01:28:49;22.10;50.70
418;DHT22;49;48.530;9.200;2022-09-01T01:31:17;21.90;50.20
418;DHT22;49;48.530;9.200;2022-09-01T01:33:49;21.70;53.20
418;DHT22;49;48.530;9.200;2022-09-01T01:36:19;21.60;52.20
418;DHT22;49;48.530;9.200;2022-09-01T01:38:52;21.50;51.60
418;DHT22;49;48.530;9.200;2022-09-01T01:41:21;21.30;53.50
418;DHT22;49;48.530;9.200;2022-09-01T01:43:48;21.30;54.40
418;DHT22;49;48.530;9.200;2022-09-01T01:46:16;21.30;52.80
418;DHT22;49;48.530;9.200;2022-09-01T01:48:43;21.20;52.80
418;DHT22;49;48.530;9.200;2022-09-01T01:51:11;21.10;53.00
418;DHT22;49;48.530;9.200;2022-09-01T01:53:39;21.10;55.60
418;DHT22;49;48.530;9.200;2022-09-01T01:56:06;21.20;55.00
418;DHT22;49;48.530;9.200;2022-09-01T01:58:36;21.40;56.70
418;DHT22;49;48.530;9.200;2022-09-01T02:01:05;21.60;54.60
418;DHT22;49;48.530;9.200;2022-09-01T02:03:36;21.50;51.30
418;DHT22;49;48.530;9.200;2022-09-01T02:06:05;21.50;53.40
418;DHT22;49;48.530;9.200;2022-09-01T02:08:35;21.40;51.40
418;DHT22;49;48.530;9.200;2022-09-01T02:11:03;21.40;53.80
418;DHT22;49;48.530;9.200;2022-09-01T02:13:32;21.30;54.00
418;DHT22;49;48.530;9.200;2022-09-01T02:16:03;21.30;52.00
418;DHT22;49;48.530;9.200;2022-09-01T02:18:34;20.80;54.80
418;DHT22;49;48.530;9.200;2022-09-01T02:21:02;20.70;54.70
418;DHT22;49;48.530;9.200;2022-09-01T02:23:36;21.10;59.60
418;DHT22;49;48.530;9.200;2022-09-01T02:26:04;21.40;58.50
418;DHT22;49;48.530;9.200;2022-09-01T02:28:33;21.40;55.50
418;DHT22;49;48.530;9.200;2022-09-01T02:31:04;21.30;54.80
418;DHT22;49;48.530;9.200;2022-09-01T02:33:33;21.30;52.80
418;DHT22;49;48.530;9.200;2022-09-01T02:36:04;21.10;53.00
418;DHT22;49;48.530;9.200;2022-09-01T02:38:32;20.70;51.50
418;DHT22;49;48.530;9.200;2022-09-01T02:41:01;20.30;56.90
418;DHT22;49;48.530;9.200;2022-09-01T02:43:29;20.40;60.00
418;DHT22;49;48.530;9.200;2022-09-01T02:45:59;20.50;58.60
418;DHT22;49;48.530;9.200;2022-09-01T02:48:28;20.80;57.80
418;DHT22;49;48.530;9.200;2022-09-01T02:50:58;21.00;56.50
418;DHT22;49;48.530;9.200;2022-09-01T02:53:26;21.00;55.90
418;DHT22;49;48.530;9.200;2022-09-01T02:55:53;21.30;57.70
418;DHT22;49;48.530;9.200;2022-09-01T02:58:22;21.30;54.50
418;DHT22;49;48.530;9.200;2022-09-01T03:00:52;21.30;55.60
418;DHT22;49;48.530;9.200;2022-09-01T03:03:19;21.30;58.20
418;DHT22;49;48.530;9.200;2022-09-01T03:05:51;21.30;56.20
418;DHT22;49;48.530;9.200;2022-09-01T03:08:19;21.40;57.50
418;DHT22;49;48.530;9.200;2022-09-01T03:10:47;21.10;51.80
418;DHT22;49;48.530;9.200;2022-09-01T03:13:15;20.80;51.10
418;DHT22;49;48.530;9.200;2022-09-01T03:15:44;20.60;56.70
418;DHT22;49;48.530;9.200;2022-09-01T03:18:13;20.40;59.00
418;DHT22;49;48.530;9.200;2022-09-01T03:20:42;20.50;56.80
418;DHT22;49;48.530;9.200;2022-09-01T03:23:14;20.50;57.00
418;DHT22;49;48.530;9.200;2022-09-01T03:25:44;20.10;59.60
418;DHT22;49;48.530;9.200;2022-09-01T03:28:12;20.20;61.00
418;DHT22;49;48.530;9.200;2022-09-01T03:30:44;20.40;60.20
418;DHT22;49;48.530;9.200;2022-09-01T03:33:11;20.60;59.20
418;DHT22;49;48.530;9.200;2022-09-01T03:35:38;20.70;54.60
418;DHT22;49;48.530;9.200;2022-09-01T03:38:05;20.60;55.50
418;DHT22;49;48.530;9.200;2022-09-01T03:40:34;20.70;59.30
418;DHT22;49;48.530;9.200;2022-09-01T03:43:04;21.10;59.00
418;DHT22;49;48.530;9.200;2022-09-01T03:45:31;21.30;55.60
418;DHT22;49;48.530;9.200;2022-09-01T03:48:00;21.00;54.70
418;DHT22;49;48.530;9.200;2022-09-01T03:50:28;21.10;53.80
418;DHT22;49;48.530;9.200;2022-09-01T03:52:57;21.00;54.30
418;DHT22;49;48.530;9.200;2022-09-01T03:55:28;20.90;51.00
418;DHT22;49;48.530;9.200;2022-09-01T03:57:59;20.90;51.80
418;DHT22;49;48.530;9.200;2022-09-01T04:00:28;20.90;56.10
418;DHT22;49;48.530;9.200;2022-09-01T04:02:57;21.20;54.90
418;DHT22;49;48.530;9.200;2022-09-01T04:05:26;21.30;53.00
418;DHT22;49;48.530;9.200;2022-09-01T04:07:55;21.50;53.00
418;DHT22;49;48.530;9.200;2022-09-01T04:10:23;21.60;53.10
418;DHT22;49;48.530;9.200;2022-09-01T04:12:50;21.60;49.20
418;DHT22;49;48.530;9.200;2022-09-01T04:15:18;21.20;51.00
418;DHT22;49;48.530;9.200;2022-09-01T04:17:46;20.80;51.00
418;DHT22;49;48.530;9.200;2022-09-01T04:20:34;20.70;53.30
418;DHT22;49;48.530;9.200;2022-09-01T04:23:13;20.60;54.40
418;DHT22;49;48.530;9.200;2022-09-01T04:25:51;20.60;55.70
418;DHT22;49;48.530;9.200;2022-09-01T04:28:19;20.60;55.30
418;DHT22;49;48.530;9.200;2022-09-01T04:30:53;20.70;51.40
418;DHT22;49;48.530;9.200;2022-09-01T04:33:22;20.10;54.60
418;DHT22;49;48.530;9.200;2022-09-01T04:35:50;20.20;57.70
418;DHT22;49;48.530;9.200;2022-09-01T04:38:20;20.20;57.60
418;DHT22;49;48.530;9.200;2022-09-01T04:40:47;20.00;56.10
418;DHT22;49;48.530;9.200;2022-09-01T04:43:15;20.00;56.70
418;DHT22;49;48.530;9.200;2022-09-01T04:45:42;20.10;56.40
418;DHT22;49;48.530;9.200;2022-09-01T04:48:12;20.40;57.50
418;DHT22;49;48.530;9.200;2022-09-01T04:50:39;20.90;59.80
418;DHT22;49;48.530;9.200;2022-09-01T04:53:07;21.00;57.40
418;DHT22;49;48.530;9.200;2022-09-01T04:55:38;21.30;56.30
418;DHT22;49;48.530;9.200;2022-09-01T04:58:08;21.60;55.30
418;DHT22;49;48.530;9.200;2022-09-01T05:00:39;21.40;51.50
418;DHT22;49;48.530;9.200;2022-09-01T05:03:06;21.40;55.30
418;DHT22;49;48.530;9.200;2022-09-01T05:05:40;21.40;53.70
418;DHT22;49;48.530;9.200;2022-09-01T05:08:08;21.40;53.90
418;DHT22;49;48.530;9.200;2022-09-01T05:10:40;21.20;51.80
418;DHT22;49;48.530;9.200;2022-09-01T05:13:08;21.40;55.60
418;DHT22;49;48.530;9.200;2022-09-01T05:15:37;21.60;54.30
418;DHT22;49;48.530;9.200;2022-09-01T05:18:07;21.20;49.00
418;DHT22;49;48.530;9.200;2022-09-01T05:20:40;21.20;52.90
418;DHT22;49;48.530;9.200;2022-09-01T05:23:08;21.30;50.70
418;DHT22;49;48.530;9.200;2022-09-01T05:25:41;21.50;54.60
418;DHT22;49;48.530;9.200;2022-09-01T05:28:09;21.80;53.30
418;DHT22;49;48.530;9.200;2022-09-01T05:30:38;21.80;49.30
418;DHT22;49;48.530;9.200;2022-09-01T05:33:06;21.80;50.30
418;DHT22;49;48.530;9.200;2022-09-01T05:35:39;21.80;50.30
418;DHT22;49;48.530;9.200;2022-09-01T05:38:11;21.70;49.30
418;DHT22;49;48.530;9.200;2022-09-01T05:40:40;21.70;48.80
418;DHT22;49;48.530;9.200;2022-09-01T05:43:09;21.80;48.00
418;DHT22;49;48.530;9.200;2022-09-01T05:45:38;21.90;48.30
418;DHT22;49;48.530;9.200;2022-09-01T05:48:09;22.10;46.50
418;DHT22;49;48.530;9.200;2022-09-01T05:50:40;22.00;45.70
418;DHT22;49;48.530;9.200;2022-09-01T05:53:08;22.10;46.50
418;DHT22;49;48.530;9.200;2022-09-01T05:55:41;22.40;46.10
418;DHT22;49;48.530;9.200;2022-09-01T05:58:08;22.50;45.00
418;DHT22;49;48.530;9.200;2022-09-01T06:00:39;22.60;45.90
418;DHT22;49;48.530;9.200;2022-09-01T06:03:06;22.70;44.90
418;DHT22;49;48.530;9.200;2022-09-01T06:05:34;22.70;44.20
418;DHT22;49;48.530;9.200;2022-09-01T06:08:04;22.70;45.20
418;DHT22;49;48.530;9.200;2022-09-01T06:10:32;22.60;44.70
418;DHT22;49;48.530;9.200;2022-09-01T06:13:03;22.40;46.00
418;DHT22;49;48.530;9.200;2022-09-01T06:15:30;22.40;46.70
418;DHT22;49;48.530;9.200;2022-09-01T06:17:58;22.60;46.10
418;DHT22;49;48.530;9.200;2022-09-01T06:20:25;22.60;46.20
418;DHT22;49;48.530;9.200;2022-09-01T06:22:53;22.80;44.00
418;DHT22;49;48.530;9.200;2022-09-01T06:25:21;22.30;45.40
418;DHT22;49;48.530;9.200;2022-09-01T06:27:51;22.10;46.50
418;DHT22;49;48.530;9.200;2022-09-01T06:30:18;22.00;47.70
418;DHT22;49;48.530;9.200;2022-09-01T06:32:47;22.40;47.60
418;DHT22;49;48.530;9.200;2022-09-01T06:35:16;22.40;46.70
418;DHT22;49;48.530;9.200;2022-09-01T06:37:44;22.40;48.20
418;DHT22;49;48.530;9.200;2022-09-01T06:40:14;22.30;46.60
418;DHT22;49;48.530;9.200;2022-09-01T06:42:44;22.40;48.10
418;DHT22;49;48.530;9.200;2022-09-01T06:45:12;22.70;47.00
418;DHT22;49;48.530;9.200;2022-09-01T06:47:39;22.90;46.10
418;DHT22;49;48.530;9.200;2022-09-01T06:50:10;23.00;48.50
418;DHT22;49;48.530;9.200;2022-09-01T06:52:37;23.50;44.00
418;DHT22;49;48.530;9.200;2022-09-01T06:55:05;23.70;42.40
418;DHT22;49;48.530;9.200;2022-09-01T06:57:32;23.60;41.50
418;DHT22;49;48.530;9.200;2022-09-01T07:00:05;23.20;42.70
418;DHT22;49;48.530;9.200;2022-09-01T07:02:40;23.20;43.50
418;DHT22;49;48.530;9.200;2022-09-01T07:05:07;23.10;44.10
418;DHT22;49;48.530;9.200;2022-09-01T07:07:34;23.10;44.10
418;DHT22;49;48.530;9.200;2022-09-01T07:10:03;22.90;44.10
418;DHT22;49;48.530;9.200;2022-09-01T07:12:30;22.80;45.90
418;DHT22;49;48.530;9.200;2022-09-01T07:14:57;23.00;45.80
418;DHT22;49;48.530;9.200;2022-09-01T07:17:27;22.80;46.30
418;DHT22;49;48.530;9.200;2022-09-01T07:19:55;22.80;47.00
418;DHT22;49;48.530;9.200;2022-09-01T07:22:22;23.10;46.20
418;DHT22;49;48.530;9.200;2022-09-01T07:24:48;23.30;45.20
418;DHT22;49;48.530;9.200;2022-09-01T07:27:21;23.30;46.80
418;DHT22;49;48.530;9.200;2022-09-01T07:29:53;23.50;46.20
418;DHT22;49;48.530;9.200;2022-09-01T07:32:21;24.00;48.20
418;DHT22;49;48.530;9.200;2022-09-01T07:34:50;25.20;42.60
418;DHT22;49;48.530;9.200;2022-09-01T07:37:17;25.90;39.10
418;DHT22;49;48.530;9.200;2022-09-01T07:39:47;26.80;34.70
418;DHT22;49;48.530;9.200;2022-09-01T07:42:17;27.20;32.10
418;DHT22;49;48.530;9.200;2022-09-01T07:44:45;27.00;31.20
418;DHT22;49;48.530;9.200;2022-09-01T07:47:12;27.00;32.40
418;DHT22;49;48.530;9.200;2022-09-01T07:49:40;28.10;29.20
418;DHT22;49;48.530;9.200;2022-09-01T07:52:09;27.90;29.10
418;DHT22;49;48.530;9.200;2022-09-01T07:54:37;27.70;30.00
418;DHT22;49;48.530;9.200;2022-09-01T07:57:06;27.10;31.90
418;DHT22;49;48.530;9.200;2022-09-01T07:59:37;27.20;33.00
418;DHT22;49;48.530;9.200;2022-09-01T08:02:06;27.00;31.40
418;DHT22;49;48.530;9.200;2022-09-01T08:04:37;26.90;33.80
418;DHT22;49;48.530;9.200;2022-09-01T08:07:04;27.40;31.60
418;DHT22;49;48.530;9.200;2022-09-01T08:09:35;28.10;29.60
418;DHT22;49;48.530;9.200;2022-09-01T08:12:04;27.60;31.80
418;DHT22;49;48.530;9.200;2022-09-01T08:14:31;28.50;29.40
418;DHT22;49;48.530;9.200;2022-09-01T08:17:06;28.60;27.60
418;DHT22;49;48.530;9.200;2022-09-01T08:19:33;28.00;28.70
418;DHT22;49;48.530;9.200;2022-09-01T08:22:02;27.50;30.00
418;DHT22;49;48.530;9.200;2022-09-01T08:24:35;26.00;33.30
418;DHT22;49;48.530;9.200;2022-09-01T08:27:05;25.60;35.90
418;DHT22;49;48.530;9.200;2022-09-01T08:29:33;25.30;36.90
418;DHT22;49;48.530;9.200;2022-09-01T08:32:00;25.00;39.10
418;DHT22;49;48.530;9.200;2022-09-01T08:34:28;25.10;39.00
418;DHT22;49;48.530;9.200;2022-09-01T08:36:57;25.10;39.10
418;DHT22;49;48.530;9.200;2022-09-01T08:39:24;25.10;37.80
418;DHT22;49;48.530;9.200;2022-09-01T08:41:56;25.00;39.50
418;DHT22;49;48.530;9.200;2022-09-01T08:44:30;24.80;40.00
418;DHT22;49;48.530;9.200;2022-09-01T08:47:04;25.00;40.10
418;DHT22;49;48.530;9.200;2022-09-01T08:49:33;24.80;40.30
418;DHT22;49;48.530;9.200;2022-09-01T08:52:09;25.10;38.00
418;DHT22;49;48.530;9.200;2022-09-01T08:54:41;25.80;34.90
418;DHT22;49;48.530;9.200;2022-09-01T08:57:15;24.90;36.90
418;DHT22;49;48.530;9.200;2022-09-01T08:59:43;24.30;40.50
418;DHT22;49;48.530;9.200;2022-09-01T09:02:38;24.30;39.60
418;DHT22;49;48.530;9.200;2022-09-01T09:05:12;24.90;39.30
418;DHT22;49;48.530;9.200;2022-09-01T09:07:57;25.40;36.10
418;DHT22;49;48.530;9.200;2022-09-01T09:10:31;24.60;37.00
418;DHT22;49;48.530;9.200;2022-09-01T09:13:10;24.00;40.90
418;DHT22;49;48.530;9.200;2022-09-01T09:15:45;24.00;40.10
418;DHT22;49;48.530;9.200;2022-09-01T09:18:18;24.40;39.00
418;DHT22;49;48.530;9.200;2022-09-01T09:20:46;24.70;36.30
418;DHT22;49;48.530;9.200;2022-09-01T09:23:20;24.20;37.50
418;DHT22;49;48.530;9.200;2022-09-01T09:25:50;23.50;37.90
418;DHT22;49;48.530;9.200;2022-09-01T09:28:18;23.90;38.90
418;DHT22;49;48.530;9.200;2022-09-01T09:30:45;24.10;34.80
418;DHT22;49;48.530;9.200;2022-09-01T09:33:33;24.10;35.80
418;DHT22;49;48.530;9.200;2022-09-01T09:36:16;24.30;32.10
418;DHT22;49;48.530;9.200;2022-09-01T09:38:45;24.60;32.10
418;DHT22;49;48.530;9.200;2022-09-01T09:41:15;25.50;30.70
418;DHT22;49;48.530;9.200;2022-09-01T09:43:48;25.70;29.50
418;DHT22;49;48.530;9.200;2022-09-01T09:46:25;25.80;27.40
418;DHT22;49;48.530;9.200;2022-09-01T09:49:08;25.90;28.40
418;DHT22;49;48.530;9.200;2022-09-01T09:51:36;26.00;26.80
418;DHT22;49;48.530;9.200;2022-09-01T09:54:14;26.00;27.40
418;DHT22;49;48.530;9.200;2022-09-01T09:56:44;25.80;27.50
418;DHT22;49;48.530;9.200;2022-09-01T09:59:26;26.40;27.00
418;DHT22;49;48.530;9.200;2022-09-01T10:01:57;26.30;28.50
418;DHT22;49;48.530;9.200;2022-09-01T10:04:33;26.40;26.10
418;DHT22;49;48.530;9.200;2022-09-01T10:07:00;26.50;25.60
418;DHT22;49;48.530;9.200;2022-09-01T10:09:35;25.40;28.70
418;DHT22;49;48.530;9.200;2022-09-01T10:12:03;25.60;30.00
418;DHT22;49;48.530;9.200;2022-09-01T10:14:39;25.90;28.00
418;DHT22;49;48.530;9.200;2022-09-01T10:17:11;26.00;26.90
418;DHT22;49;48.530;9.200;2022-09-01T10:19:45;26.10;26.00
418;DHT22;49;48.530;9.200;2022-09-01T10:22:13;25.70;27.90
418;DHT22;49;48.530;9.200;2022-09-01T10:24:40;25.70;27.90
418;DHT22;49;48.530;9.200;2022-09-01T10:27:18;25.90;27.80
418;DHT22;49;48.530;9.200;2022-09-01T10:29:51;26.30;27.20
418;DHT22;49;48.530;9.200;2022-09-01T10:32:23;26.00;28.00
418;DHT22;49;48.530;9.200;2022-09-01T10:34:52;26.40;27.70
418;DHT22;49;48.530;9.200;2022-09-01T10:37:19;26.80;24.90
418;DHT22;49;48.530;9.200;2022-09-01T10:40:09;26.80;24.70
418;DHT22;49;48.530;9.200;2022-09-01T10:42:37;26.70;25.20
418;DHT22;49;48.530;9.200;2022-09-01T10:45:15;26.60;25.80
418;DHT22;49;48.530;9.200;2022-09-01T10:47:43;26.40;26.60
418;DHT22;49;48.530;9.200;2022-09-01T10:50:24;26.20;25.20
418;DHT22;49;48.530;9.200;2022-09-01T10:53:00;26.20;26.00
418;DHT22;49;48.530;9.200;2022-09-01T10:55:37;26.30;25.90
418;DHT22;49;48.530;9.200;2022-09-01T10:58:20;25.70;27.90
418;DHT22;49;48.530;9.200;2022-09-01T11:00:53;25.30;28.60
418;DHT22;49;48.530;9.200;2022-09-01T11:06:58;25.90;27.20
418;DHT22;49;48.530;9.200;2022-09-01T11:09:33;26.00;26.90
418;DHT22;49;48.530;9.200;2022-09-01T11:12:37;26.00;27.00
418;DHT22;49;48.530;9.200;2022-09-01T11:15:37;25.80;28.60
418;DHT22;49;48.530;9.200;2022-09-01T11:18:10;26.30;26.50
418;DHT22;49;48.530;9.200;2022-09-01T11:20:40;25.90;28.00
418;DHT22;49;48.530;9.200;2022-09-01T11:23:11;26.30;27.30
418;DHT22;49;48.530;9.200;2022-09-01T11:25:42;26.60;24.70
418;DHT22;49;48.530;9.200;2022-09-01T11:31:28;26.20;27.20
418;DHT22;49;48.530;9.200;2022-09-01T11:34:14;26.00;26.80
418;DHT22;49;48.530;9.200;2022-09-01T11:36:58;25.80;26.90
418;DHT22;49;48.530;9.200;2022-09-01T11:39:41;25.50;27.80
418;DHT22;49;48.530;9.200;2022-09-01T11:42:17;26.30;26.20
418;DHT22;49;48.530;9.200;2022-09-01T11:44:48;26.80;25.20
418;DHT22;49;48.530;9.200;2022-09-01T11:47:19;27.00;23.90
418;DHT22;49;48.530;9.200;2022-09-01T11:49:55;26.70;24.70
418;DHT22;49;48.530;9.200;2022-09-01T11:52:25;26.80;23.90
418;DHT22;49;48.530;9.200;2022-09-01T11:54:53;26.90;24.00
418;DHT22;49;48.530;9.200;2022-09-01T11:57:29;26.80;24.10
418;DHT22;49;48.530;9.200;2022-09-01T11:59:57;26.40;25.40
418;DHT22;49;48.530;9.200;2022-09-01T12:02:26;26.00;26.10
418;DHT22;49;48.530;9.200;2022-09-01T12:04:56;25.80;25.80
418;DHT22;49;48.530;9.200;2022-09-01T12:07:26;26.00;26.60
418;DHT22;49;48.530;9.200;2022-09-01T12:09:54;26.00;25.50
418;DHT22;49;48.530;9.200;2022-09-01T12:12:31;26.40;26.90
418;DHT22;49;48.530;9.200;2022-09-01T12:15:00;26.20;26.30
418;DHT22;49;48.530;9.200;2022-09-01T12:17:27;26.10;25.20
418;DHT22;49;48.530;9.200;2022-09-01T12:19:55;26.30;26.20
418;DHT22;49;48.530;9.200;2022-09-01T12:22:22;26.60;25.40
418;DHT22;49;48.530;9.200;2022-09-01T12:24:51;26.60;25.20
418;DHT22;49;48.530;9.200;2022-09-01T12:27:19;27.20;24.30
418;DHT22;49;48.530;9.200;2022-09-01T12:29:48;27.70;23.10
418;DHT22;49;48.530;9.200;2022-09-01T12:32:15;28.00;22.20
418;DHT22;49;48.530;9.200;2022-09-01T12:34:46;28.10;21.80
418;DHT22;49;48.530;9.200;2022-09-01T12:37:21;28.30;22.20
418;DHT22;49;48.530;9.200;2022-09-01T12:39:50;28.20;21.30
418;DHT22;49;48.530;9.200;2022-09-01T12:42:25;27.90;21.90
418;DHT22;49;48.530;9.200;2022-09-01T12:44:55;27.60;21.50
418;DHT22;49;48.530;9.200;2022-09-01T12:47:48;28.00;21.50
418;DHT22;49;48.530;9.200;2022-09-01T12:50:45;27.70;22.20
418;DHT22;49;48.530;9.200;2022-09-01T12:53:26;26.70;24.70
418;DHT22;49;48.530;9.200;2022-09-01T12:56:01;26.00;25.40
418;DHT22;49;48.530;9.200;2022-09-01T12:58:28;25.20;26.10
418;DHT22;49;48.530;9.200;2022-09-01T13:00:59;24.80;27.40
418;DHT22;49;48.530;9.200;2022-09-01T13:03:27;24.70;27.90
418;DHT22;49;48.530;9.200;2022-09-01T13:05:56;24.80;27.40
418;DHT22;49;48.530;9.200;2022-09-01T13:08:26;24.80;27.80
418;DHT22;49;48.530;9.200;2022-09-01T13:10:55;25.00;27.50
418;DHT22;49;48.530;9.200;2022-09-01T13:13:24;25.20;27.30
418;DHT22;49;48.530;9.200;2022-09-01T13:15:53;25.50;26.60
418;DHT22;49;48.530;9.200;2022-09-01T13:18:21;25.10;26.80
418;DHT22;49;48.530;9.200;2022-09-01T13:20:49;24.90;27.50
418;DHT22;49;48.530;9.200;2022-09-01T13:23:18;25.50;26.90
418;DHT22;49;48.530;9.200;2022-09-01T13:25:47;25.80;27.10
418;DHT22;49;48.530;9.200;2022-09-01T13:28:15;25.50;26.20
418;DHT22;49;48.530;9.200;2022-09-01T13:30:44;25.30;27.70
418;DHT22;49;48.530;9.200;2022-09-01T13:33:12;25.80;26.60
418;DHT22;49;48.530;9.200;2022-09-01T13:35:39;26.20;26.40
418;DHT22;49;48.530;9.200;2022-09-01T13:38:06;26.30;25.90
418;DHT22;49;48.530;9.200;2022-09-01T13:40:32;26.70;25.30
418;DHT22;49;48.530;9.200;2022-09-01T13:43:01;26.70;24.70
418;DHT22;49;48.530;9.200;2022-09-01T13:45:29;27.10;24.40
418;DHT22;49;48.530;9.200;2022-09-01T13:47:56;26.60;24.00
418;DHT22;49;48.530;9.200;2022-09-01T13:50:23;26.60;24.50
418;DHT22;49;48.530;9.200;2022-09-01T13:52:52;26.70;24.70
418;DHT22;49;48.530;9.200;2022-09-01T13:55:22;26.60;25.70
418;DHT22;49;48.530;9.200;2022-09-01T13:57:49;26.60;25.00
418;DHT22;49;48.530;9.200;2022-09-01T14:00:20;26.70;25.30
418;DHT22;49;48.530;9.200;2022-09-01T14:02:51;26.60;25.60
418;DHT22;49;48.530;9.200;2022-09-01T14:05:20;26.80;24.50
418;DHT22;49;48.530;9.200;2022-09-01T14:07:47;26.40;24.40
418;DHT22;49;48.530;9.200;2022-09-01T14:10:15;26.30;24.20
418;DHT22;49;48.530;9.200;2022-09-01T14:12:42;26.40;24.20
418;DHT22;49;48.530;9.200;2022-09-01T14:15:11;27.20;22.70
418;DHT22;49;48.530;9.200;2022-09-01T14:17:39;27.30;22.70
418;DHT22;49;48.530;9.200;2022-09-01T14:20:09;27.60;22.10
418;DHT22;49;48.530;9.200;2022-09-01T14:22:37;27.10;23.00
418;DHT22;49;48.530;9.200;2022-09-01T14:25:05;27.10;24.40
418;DHT22;49;48.530;9.200;2022-09-01T14:27:33;26.60;25.50
418;DHT22;49;48.530;9.200;2022-09-01T14:29:59;26.30;26.00
418;DHT22;49;48.530;9.200;2022-09-01T14:32:26;26.30;26.80
418;DHT22;49;48.530;9.200;2022-09-01T14:34:56;26.80;25.80
418;DHT22;49;48.530;9.200;2022-09-01T14:37:24;27.00;25.10
418;DHT22;49;48.530;9.200;2022-09-01T14:39:51;26.30;26.70
418;DHT22;49;48.530;9.200;2022-09-01T14:42:19;26.20;27.00
418;DHT22;49;48.530;9.200;2022-09-01T14:44:46;26.10;27.10
418;DHT22;49;48.530;9.200;2022-09-01T14:47:13;26.40;26.20
418;DHT22;49;48.530;9.200;2022-09-01T14:49:41;26.40;24.10
418;DHT22;49;48.530;9.200;2022-09-01T14:52:10;26.10;24.60
418;DHT22;49;48.530;9.200;2022-09-01T14:54:40;26.30;24.80
418;DHT22;49;48.530;9.200;2022-09-01T14:57:08;26.20;25.60
418;DHT22;49;48.530;9.200;2022-09-01T14:59:35;26.30;25.00
418;DHT22;49;48.530;9.200;2022-09-01T15:02:03;26.30;25.40
418;DHT22;49;48.530;9.200;2022-09-01T15:04:30;26.20;24.30
418;DHT22;49;48.530;9.200;2022-09-01T15:06:58;26.40;24.90
418;DHT22;49;48.530;9.200;2022-09-01T15:09:27;27.00;23.80
418;DHT22;49;48.530;9.200;2022-09-01T15:11:54;27.20;22.70
418;DHT22;49;48.530;9.200;2022-09-01T15:14:24;27.40;23.40
418;DHT22;49;48.530;9.200;2022-09-01T15:16:51;27.50;22.90
418;DHT22;49;48.530;9.200;2022-09-01T15:19:18;27.60;23.20
418;DHT22;49;48.530;9.200;2022-09-01T15:21:45;27.00;23.90
418;DHT22;49;48.530;9.200;2022-09-01T15:24:12;26.60;24.70
418;DHT22;49;48.530;9.200;2022-09-01T15:26:41;26.70;24.20
418;DHT22;49;48.530;9.200;2022-09-01T15:29:08;26.40;25.30
418;DHT22;49;48.530;9.200;2022-09-01T15:31:37;26.10;25.00
418;DHT22;49;48.530;9.200;2022-09-01T15:34:05;26.00;25.30
418;DHT22;49;48.530;9.200;2022-09-01T15:36:34;25.70;25.60
418;DHT22;49;48.530;9.200;2022-09-01T15:39:04;25.60;26.50
418;DHT22;49;48.530;9.200;2022-09-01T15:41:32;26.00;25.50
418;DHT22;49;48.530;9.200;2022-09-01T15:44:03;26.20;24.60
418;DHT22;49;48.530;9.200;2022-09-01T15:46:31;25.80;25.30
418;DHT22;49;48.530;9.200;2022-09-01T15:48:59;25.60;26.20
418;DHT22;49;48.530;9.200;2022-09-01T15:51:29;25.40;26.10
418;DHT22;49;48.530;9.200;2022-09-01T15:54:02;25.30;26.30
418;DHT22;49;48.530;9.200;2022-09-01T15:56:29;25.70;26.40
418;DHT22;49;48.530;9.200;2022-09-01T15:58:57;25.80;26.60
418;DHT22;49;48.530;9.200;2022-09-01T16:01:27;25.70;26.10
418;DHT22;49;48.530;9.200;2022-09-01T16:03:55;25.50;26.20
418;DHT22;49;48.530;9.200;2022-09-01T16:06:23;25.40;26.10
418;DHT22;49;48.530;9.200;2022-09-01T16:08:50;25.30;26.30
418;DHT22;49;48.530;9.200;2022-09-01T16:11:19;25.30;26.70
418;DHT22;49;48.530;9.200;2022-09-01T16:13:48;25.60;26.90
418;DHT22;49;48.530;9.200;2022-09-01T16:16:30;25.60;25.90
418;DHT22;49;48.530;9.200;2022-09-01T16:19:02;25.60;25.90
418;DHT22;49;48.530;9.200;2022-09-01T16:21:36;25.80;25.80
418;DHT22;49;48.530;9.200;2022-09-01T16:24:08;26.00;25.50
418;DHT22;49;48.530;9.200;2022-09-01T16:26:36;25.80;25.60
418;DHT22;49;48.530;9.200;2022-09-01T16:29:08;25.70;25.30
418;DHT22;49;48.530;9.200;2022-09-01T16:31:41;25.20;25.20
418;DHT22;49;48.530;9.200;2022-09-01T16:34:12;25.20;26.20
418;DHT22;49;48.530;9.200;2022-09-01T16:36:52;25.20;25.10
418;DHT22;49;48.530;9.200;2022-09-01T16:39:31;25.40;25.70
418;DHT22;49;48.530;9.200;2022-09-01T16:42:17;25.70;25.80
418;DHT22;49;48.530;9.200;2022-09-01T16:44:59;25.60;25.40
418;DHT22;49;48.530;9.200;2022-09-01T16:47:39;25.70;25.50
418;DHT22;49;48.530;9.200;2022-09-01T16:50:15;25.60;25.40
418;DHT22;49;48.530;9.200;2022-09-01T16:53:00;25.40;25.90
418;DHT22;49;48.530;9.200;2022-09-01T16:55:36;25.40;26.70
418;DHT22;49;48.530;9.200;2022-09-01T16:58:13;25.60;26.50
418;DHT22;49;48.530;9.200;2022-09-01T17:00:53;25.50;26.20
418;DHT22;49;48.530;9.200;2022-09-01T17:03:29;25.40;26.20
418;DHT22;49;48.530;9.200;2022-09-01T17:06:04;25.20;25.60
418;DHT22;49;48.530;9.200;2022-09-01T17:08:35;24.50;26.60
418;DHT22;49;48.530;9.200;2022-09-01T17:11:14;24.30;27.70
418;DHT22;49;48.530;9.200;2022-09-01T17:13:44;24.60;26.60
418;DHT22;49;48.530;9.200;2022-09-01T17:16:19;24.80;26.60
418;DHT22;49;48.530;9.200;2022-09-01T17:18:53;24.70;26.70
418;DHT22;49;48.530;9.200;2022-09-01T17:21:23;24.80;27.40